Time;durP1;ratioP1;P1;durP2;ratioP2;P2;SDS_P1;SDS_P2;PMS_P1;PMS_P2;Temp;Humidity;BMP_temperature;BMP_pressure;BME280_temperature;BME280_humidity;BME280_pressure;Samples;Min_cycle;Max_cycle;Signal;HPM_P1;HPM_P2
2023/04/09 00:01:37;;;;;;;19.25;17.65;;;;;;;9.37;100.00;102492.81;5007765;28;20168;-61
2023/04/09 00:04:02;;;;;;;19.33;17.63;;;;;;;9.38;100.00;102482.69;5006995;28;20026;-61
2023/04/09 00:06:28;;;;;;;18.27;16.67;;;;;;;9.39;100.00;102490.75;5007051;28;20373;-61
2023/04/09 00:08:53;;;;;;;19.90;18.17;;;;;;;9.36;100.00;102491.97;5006551;28;20388;-61
2023/04/09 00:11:18;;;;;;;18.33;16.73;;;;;;;9.48;99.22;102486.03;5008005;28;20033;-62
2023/04/09 00:13:44;;;;;;;19.25;17.55;;;;;;;9.47;98.84;102485.19;5006317;28;20497;-62
2023/04/09 00:16:09;;;;;;;17.48;15.88;;;;;;;9.49;98.94;102488.63;5007067;28;20029;-62
2023/04/09 00:18:35;;;;;;;19.92;18.23;;;;;;;9.40;99.50;102486.13;5006855;28;20029;-61
2023/04/09 00:21:00;;;;;;;18.40;16.60;;;;;;;9.58;97.92;102478.44;5006608;28;20029;-62
2023/04/09 00:23:25;;;;;;;18.80;17.10;;;;;;;9.46;99.07;102483.50;5006022;28;20026;-61
2023/04/09 00:25:50;;;;;;;18.83;17.20;;;;;;;9.48;99.28;102477.81;5007160;28;20116;-62
2023/04/09 00:28:16;;;;;;;19.55;17.83;;;;;;;9.32;100.00;102473.31;5005461;28;20021;-61
2023/04/09 00:30:41;;;;;;;19.67;17.98;;;;;;;9.30;100.00;102479.00;5007384;28;20052;-61
2023/04/09 00:33:06;;;;;;;19.63;17.85;;;;;;;9.50;98.81;102468.38;5005223;28;20096;-62
2023/04/09 00:35:32;;;;;;;18.15;16.45;;;;;;;9.47;98.53;102467.91;5006011;28;20046;-61
2023/04/09 00:37:57;;;;;;;19.40;17.70;;;;;;;9.50;98.42;102468.38;4978457;28;20022;-61
2023/04/09 00:40:22;;;;;;;18.25;16.55;;;;;;;9.33;100.00;102475.91;5005349;28;20056;-61
2023/04/09 00:42:47;;;;;;;19.70;18.00;;;;;;;9.41;99.94;102465.88;5006570;28;20421;-62
2023/04/09 00:45:13;;;;;;;21.13;19.30;;;;;;;9.32;100.00;102465.09;5006732;28;20465;-62
2023/04/09 00:47:38;;;;;;;19.42;17.58;;;;;;;9.29;100.00;102463.59;5005663;28;20034;-61
2023/04/09 00:50:04;;;;;;;20.83;18.98;;;;;;;9.25;100.00;102462.25;5006885;28;20076;-62
2023/04/09 00:52:29;;;;;;;21.05;19.20;;;;;;;9.22;100.00;102468.06;5005453;28;20034;-62
2023/04/09 00:54:55;;;;;;;21.63;19.52;;;;;;;9.25;100.00;102464.97;5005891;28;20439;-62
2023/04/09 00:57:21;;;;;;;21.17;19.23;;;;;;;9.20;100.00;102463.81;5006500;28;20033;-61
2023/04/09 00:59:46;;;;;;;20.33;18.55;;;;;;;9.20;100.00;102464.66;5007804;28;20400;-62
2023/04/09 01:02:11;;;;;;;21.77;19.77;;;;;;;9.21;100.00;102471.00;5006935;28;20028;-62
2023/04/09 01:04:40;;;;;;;20.90;19.08;;;;;;;9.18;100.00;102465.91;5005567;28;20404;-61
2023/04/09 01:07:43;;;;;;;21.33;19.33;;;;;;;9.22;100.00;102462.59;5005808;28;20447;-61
2023/04/09 01:10:11;;;;;;;20.90;19.00;;;;;;;9.21;100.00;102460.03;5007424;28;20136;-61
2023/04/09 01:12:59;;;;;;;21.75;19.75;;;;;;;9.20;100.00;102452.84;5006664;28;20116;-60
2023/04/09 01:15:28;;;;;;;21.63;19.67;;;;;;;9.16;100.00;102459.72;5005534;28;20443;-62
2023/04/09 01:18:08;;;;;;;22.00;20.00;;;;;;;9.23;100.00;102447.03;5004900;28;20413;-62
2023/04/09 01:20:57;;;;;;;21.80;19.83;;;;;;;9.17;100.00;102444.97;5005435;28;20473;-62
2023/04/09 01:23:42;;;;;;;21.02;19.05;;;;;;;9.16;100.00;102452.34;5005432;28;20420;-61
2023/04/09 01:26:21;;;;;;;21.08;19.17;;;;;;;9.18;100.00;102439.34;5005930;28;20034;-61
2023/04/09 01:28:52;;;;;;;21.38;19.30;;;;;;;9.19;100.00;102452.00;5003812;28;20384;-61
2023/04/09 01:31:20;;;;;;;21.58;19.52;;;;;;;9.14;100.00;102445.38;5006194;28;20022;-62
2023/04/09 01:33:46;;;;;;;22.45;20.45;;;;;;;9.10;100.00;102442.97;5005692;28;20034;-61
2023/04/09 01:36:13;;;;;;;20.75;18.85;;;;;;;9.10;100.00;102442.13;5006044;28;20030;-62
2023/04/09 01:38:41;;;;;;;20.33;18.48;;;;;;;9.09;100.00;102441.28;5005443;28;20030;-62
2023/04/09 01:41:09;;;;;;;21.80;19.85;;;;;;;9.09;100.00;102441.28;4996658;28;20050;-61
2023/04/09 01:43:36;;;;;;;21.65;19.55;;;;;;;9.13;100.00;102446.41;5006631;28;20026;-62
2023/04/09 01:46:02;;;;;;;19.88;18.00;;;;;;;9.12;100.00;102434.56;5009513;28;20365;-62
2023/04/09 01:48:29;;;;;;;20.90;19.00;;;;;;;9.10;100.00;102442.13;5009817;28;20049;-61
2023/04/09 01:50:55;;;;;;;20.23;18.30;;;;;;;9.21;100.00;102436.22;5008320;28;20117;-62
2023/04/09 01:53:20;;;;;;;20.42;18.42;;;;;;;9.20;100.00;102441.88;5009595;28;20466;-61
2023/04/09 01:55:46;;;;;;;21.55;19.60;;;;;;;9.07;100.00;102440.63;5009719;28;20025;-61
2023/04/09 01:58:12;;;;;;;22.05;20.05;;;;;;;9.15;100.00;102434.22;5008888;28;20117;-62
2023/04/09 02:00:42;;;;;;;22.80;20.70;;;;;;;9.03;100.00;102433.78;5008923;28;20037;-61
2023/04/09 02:03:17;;;;;;;22.27;20.27;;;;;;;9.07;100.00;102442.47;5008683;28;20508;-61
2023/04/09 02:05:49;;;;;;;21.98;19.98;;;;;;;9.03;100.00;102450.25;5009168;28;20647;-62
2023/04/09 02:08:20;;;;;;;22.55;20.42;;;;;;;9.02;100.00;102444.91;5009117;28;20040;-60
2023/04/09 02:10:52;;;;;;;21.88;19.92;;;;;;;9.02;100.00;102442.16;5009310;28;20034;-62
2023/04/09 02:13:19;;;;;;;23.88;21.60;;;;;;;9.01;100.00;102451.44;5008542;28;20053;-62
2023/04/09 02:15:45;;;;;;;25.08;22.83;;;;;;;9.04;100.00;102442.88;5007879;28;20029;-62
2023/04/09 02:18:27;;;;;;;24.40;22.17;;;;;;;9.01;100.00;102435.84;5006484;28;20484;-62
2023/04/09 02:20:53;;;;;;;24.15;21.90;;;;;;;8.97;100.00;102436.38;5008512;28;20022;-62
2023/04/09 02:23:19;;;;;;;25.27;22.95;;;;;;;8.96;100.00;102430.06;5008908;28;20044;-62
2023/04/09 02:25:45;;;;;;;24.80;22.40;;;;;;;8.96;100.00;102440.16;5009593;28;20029;-62
2023/04/09 02:28:10;;;;;;;24.27;22.08;;;;;;;8.98;100.00;102430.75;5008444;28;20483;-61
2023/04/09 02:30:35;;;;;;;25.33;22.98;;;;;;;8.96;100.00;102431.94;5008930;28;20133;-62
2023/04/09 02:33:01;;;;;;;25.60;23.30;;;;;;;8.98;100.00;102432.63;5009979;28;20033;-62
2023/04/09 02:35:26;;;;;;;25.92;23.52;;;;;;;8.97;100.00;102429.03;5008537;28;20489;-62
2023/04/09 02:37:51;;;;;;;24.98;22.75;;;;;;;8.94;100.00;102423.91;5008683;28;20487;-61
2023/04/09 02:40:16;;;;;;;26.20;23.70;;;;;;;8.94;100.00;102420.31;5007382;28;20050;-62
2023/04/09 02:42:42;;;;;;;25.02;22.73;;;;;;;8.92;100.00;102426.00;5009118;28;20505;-61
2023/04/09 02:45:07;;;;;;;25.65;23.25;;;;;;;8.94;100.00;102425.81;5060723;22;20103;-58
2023/04/09 02:47:33;;;;;;;25.50;23.13;;;;;;;8.91;100.00;102423.41;5019259;28;20041;-59
2023/04/09 02:49:58;;;;;;;26.85;24.35;;;;;;;8.93;100.00;102419.47;5006830;28;20148;-62
2023/04/09 02:52:24;;;;;;;26.15;23.67;;;;;;;8.92;100.00;102422.38;5008115;28;20033;-61
2023/04/09 02:54:51;;;;;;;25.70;23.30;;;;;;;8.90;100.00;102416.22;5008684;28;20117;-61
2023/04/09 02:57:16;;;;;;;27.08;24.58;;;;;;;8.95;100.00;102416.53;5007759;28;20061;-62
2023/04/09 02:59:42;;;;;;;26.27;23.75;;;;;;;8.88;100.00;102421.06;5007668;28;20080;-61
2023/04/09 03:02:07;;;;;;;27.33;24.80;;;;;;;8.84;100.00;102418.66;5009150;28;20066;-62
2023/04/09 03:04:32;;;;;;;26.92;24.42;;;;;;;8.83;100.00;102419.69;5008006;28;20113;-62
2023/04/09 03:06:58;;;;;;;26.92;24.33;;;;;;;8.83;100.00;102414.22;5008886;28;20057;-62
2023/04/09 03:09:23;;;;;;;26.20;23.70;;;;;;;8.82;100.00;102412.53;5005068;28;20095;-61
2023/04/09 03:11:48;;;;;;;27.55;24.92;;;;;;;8.82;100.00;102412.53;5007478;28;20041;-61
2023/04/09 03:14:14;;;;;;;26.70;24.17;;;;;;;8.82;100.00;102412.53;5006331;28;20018;-62
2023/04/09 03:16:39;;;;;;;27.67;25.17;;;;;;;8.79;100.00;102410.13;5006719;28;20030;-61
2023/04/09 03:19:04;;;;;;;27.77;25.15;;;;;;;8.77;100.00;102405.88;5008220;28;20160;-62
2023/04/09 03:21:30;;;;;;;27.58;24.98;;;;;;;8.77;100.00;102411.38;5006015;28;20160;-62
2023/04/09 03:23:56;;;;;;;26.55;24.05;;;;;;;8.75;100.00;102406.03;5007102;28;20117;-62
2023/04/09 03:26:21;;;;;;;28.45;25.83;;;;;;;8.76;100.00;102404.16;5007492;28;20397;-65
2023/04/09 03:28:47;;;;;;;27.45;24.90;;;;;;;8.74;100.00;102407.09;5007578;28;20026;-61
2023/04/09 03:31:12;;;;;;;27.65;25.00;;;;;;;8.73;100.00;102404.53;5006003;28;20065;-61
2023/04/09 03:33:38;;;;;;;27.17;24.52;;;;;;;8.71;100.00;102401.94;5007104;28;20499;-62
2023/04/09 03:36:04;;;;;;;28.48;25.80;;;;;;;8.73;100.00;102401.78;5007755;28;20034;-62
2023/04/09 03:38:29;;;;;;;27.15;24.58;;;;;;;8.74;100.00;102398.00;5006535;28;20037;-62
2023/04/09 03:40:55;;;;;;;28.58;25.73;;;;;;;8.71;100.00;102401.94;5006951;28;20034;-62
2023/04/09 03:43:20;;;;;;;26.83;24.02;;;;;;;8.80;100.00;102395.41;5005922;28;20029;-61
2023/04/09 03:45:46;;;;;;;29.13;26.30;;;;;;;8.73;100.00;102388.94;5007142;28;20060;-62
2023/04/09 03:48:11;;;;;;;27.67;25.00;;;;;;;8.72;100.00;102400.09;5007832;28;20030;-62
2023/04/09 03:50:40;;;;;;;26.65;24.15;;;;;;;8.70;100.00;102382.97;5006810;28;20092;-61
2023/04/09 03:53:05;;;;;;;27.35;24.70;;;;;;;8.66;100.00;102385.19;5007083;28;20522;-62
2023/04/09 03:55:31;;;;;;;26.55;24.05;;;;;;;8.65;100.00;102382.66;5005050;28;20062;-61
2023/04/09 03:57:56;;;;;;;27.77;25.17;;;;;;;8.64;100.00;102383.69;5007697;28;20064;-61
2023/04/09 04:00:21;;;;;;;27.17;24.67;;;;;;;8.70;100.00;102380.22;5006713;28;20050;-62
2023/04/09 04:02:46;;;;;;;27.40;24.80;;;;;;;8.64;100.00;102389.19;5006883;28;20033;-61
2023/04/09 04:05:12;;;;;;;27.33;24.83;;;;;;;8.62;100.00;102386.63;5005677;28;20037;-62
2023/04/09 04:07:37;;;;;;;27.13;24.63;;;;;;;8.62;100.00;102386.63;5004933;28;20065;-62
2023/04/09 04:10:06;;;;;;;26.95;24.33;;;;;;;8.57;100.00;102386.31;5007456;28;20034;-62
2023/04/09 04:12:31;;;;;;;25.85;23.33;;;;;;;8.55;100.00;102389.22;5007702;28;20029;-62
2023/04/09 04:14:57;;;;;;;25.70;23.25;;;;;;;8.52;100.00;102395.06;5007205;28;20056;-61
2023/04/09 04:17:22;;;;;;;26.67;24.17;;;;;;;8.48;100.00;102387.38;5005278;28;20038;-61
2023/04/09 04:19:47;;;;;;;26.08;23.60;;;;;;;8.46;100.00;102389.44;5003872;28;20050;-61
2023/04/09 04:22:13;;;;;;;25.00;22.60;;;;;;;8.43;100.00;102387.06;5007057;28;20054;-61
2023/04/09 04:24:38;;;;;;;25.85;23.35;;;;;;;8.41;100.00;102391.84;5006741;28;20045;-61
2023/04/09 04:27:03;;;;;;;25.48;23.08;;;;;;;8.38;100.00;102387.59;5006340;28;20038;-61
2023/04/09 04:29:29;;;;;;;25.30;22.73;;;;;;;8.35;100.00;102387.06;5006513;28;20037;-61
2023/04/09 04:31:54;;;;;;;25.13;22.65;;;;;;;8.32;100.00;102394.63;5005284;28;20029;-62
2023/04/09 04:34:19;;;;;;;24.35;22.02;;;;;;;8.28;100.00;102393.25;5004456;28;20025;-62
2023/04/09 04:36:45;;;;;;;24.35;22.00;;;;;;;8.27;100.00;102388.81;5007481;28;20326;-62
2023/04/09 04:39:10;;;;;;;23.98;21.60;;;;;;;8.27;100.00;102388.81;5004762;28;20041;-61
2023/04/09 04:41:35;;;;;;;24.33;22.00;;;;;;;8.24;100.00;102383.69;5007728;28;20101;-61
2023/04/09 04:44:00;;;;;;;24.10;21.63;;;;;;;8.21;100.00;102386.81;5006124;28;20045;-61
2023/04/09 04:46:26;;;;;;;23.45;21.15;;;;;;;8.14;100.00;102387.66;5006279;28;20721;-61
2023/04/09 04:48:51;;;;;;;22.80;20.52;;;;;;;8.11;100.00;102386.16;5006076;28;20736;-61
2023/04/09 04:51:16;;;;;;;23.00;20.45;;;;;;;8.04;100.00;102394.19;5005769;28;20120;-62
2023/04/09 04:53:42;;;;;;;23.85;21.55;;;;;;;8.00;100.00;102389.25;5004468;28;20076;-61
2023/04/09 04:56:12;;;;;;;23.15;20.83;;;;;;;7.93;100.00;102393.72;5005055;28;20034;-61
2023/04/09 04:58:37;;;;;;;24.08;21.67;;;;;;;7.86;100.00;102399.06;5006231;28;20041;-62
2023/04/09 05:01:02;;;;;;;24.45;22.05;;;;;;;7.75;100.00;102397.50;5006641;28;20042;-61
2023/04/09 05:03:28;;;;;;;22.58;20.35;;;;;;;7.66;100.00;102397.72;5004936;28;20594;-62
2023/04/09 05:05:53;;;;;;;23.15;20.83;;;;;;;7.56;100.00;102397.91;5006299;28;20033;-61
2023/04/09 05:08:18;;;;;;;23.58;21.20;;;;;;;7.46;100.00;102391.78;4987863;28;20476;-62
2023/04/09 05:10:45;;;;;;;23.80;21.42;;;;;;;7.34;100.00;102391.25;5006808;28;20365;-61
2023/04/09 05:13:11;;;;;;;23.92;21.65;;;;;;;7.25;100.00;102395.88;5004520;28;20045;-61
2023/04/09 05:15:38;;;;;;;22.80;20.50;;;;;;;7.18;100.00;102405.78;5005528;28;20033;-62
2023/04/09 05:18:03;;;;;;;23.25;20.95;;;;;;;7.13;100.00;102396.38;5005487;28;20059;-62
2023/04/09 05:20:28;;;;;;;23.90;21.50;;;;;;;7.07;100.00;102397.06;5008174;28;20026;-61
2023/04/09 05:22:54;;;;;;;22.70;20.40;;;;;;;7.02;100.00;102395.69;5010310;28;20044;-62
2023/04/09 05:25:19;;;;;;;22.85;20.45;;;;;;;6.97;100.00;102394.50;5009416;28;20493;-61
2023/04/09 05:27:44;;;;;;;23.02;20.63;;;;;;;6.95;100.00;102405.59;5009186;28;20042;-62
2023/04/09 05:30:10;;;;;;;22.13;19.92;;;;;;;6.94;100.00;102408.47;5010432;28;20036;-61
2023/04/09 05:32:35;;;;;;;23.17;20.83;;;;;;;6.93;100.00;102401.31;5009208;28;20044;-62
2023/04/09 05:35:01;;;;;;;23.05;20.80;;;;;;;6.92;100.00;102395.00;5010081;28;20113;-61
2023/04/09 05:37:26;;;;;;;22.77;20.58;;;;;;;6.93;100.00;102401.31;5007446;28;20041;-61
2023/04/09 05:39:51;;;;;;;23.40;21.02;;;;;;;6.93;100.00;102401.31;5009426;28;20033;-61
2023/04/09 05:42:16;;;;;;;21.88;19.67;;;;;;;6.91;100.00;102404.22;5010469;28;20025;-62
2023/04/09 05:44:42;;;;;;;23.08;20.73;;;;;;;6.91;100.00;102397.91;5009283;28;20034;-61
2023/04/09 05:47:07;;;;;;;23.20;20.90;;;;;;;6.90;100.00;102399.78;5009703;28;20452;-61
2023/04/09 05:49:32;;;;;;;22.40;20.10;;;;;;;6.94;100.00;102397.56;5007509;28;20030;-61
2023/04/09 05:51:57;;;;;;;23.52;21.02;;;;;;;6.97;100.00;102402.69;5009891;28;20034;-62
2023/04/09 05:54:23;;;;;;;24.02;21.55;;;;;;;7.01;100.00;102409.53;4991509;28;20370;-61
2023/04/09 05:56:48;;;;;;;23.25;20.95;;;;;;;7.02;100.00;102401.16;5010521;28;20531;-62
2023/04/09 05:59:13;;;;;;;22.48;20.17;;;;;;;7.04;100.00;102400.97;5008216;28;20053;-62
2023/04/09 06:01:39;;;;;;;23.83;21.42;;;;;;;7.10;100.00;102407.66;5007450;28;20113;-61
2023/04/09 06:04:04;;;;;;;23.85;21.40;;;;;;;7.12;100.00;102403.72;5005900;28;20022;-61
2023/04/09 06:06:30;;;;;;;23.25;20.95;;;;;;;7.16;100.00;102406.97;5009658;28;20044;-61
2023/04/09 06:08:55;;;;;;;22.55;20.25;;;;;;;7.19;100.00;102417.56;5007757;28;20108;-61
2023/04/09 06:11:21;;;;;;;22.05;19.85;;;;;;;7.18;100.00;102411.22;5008914;28;20037;-61
2023/04/09 06:13:47;;;;;;;22.67;20.45;;;;;;;7.23;100.00;102411.56;5009005;28;20159;-62
2023/04/09 06:16:12;;;;;;;23.70;21.17;;;;;;;7.31;100.00;102415.34;5004420;28;20084;-60
2023/04/09 06:18:37;;;;;;;23.20;21.00;;;;;;;7.37;100.00;102409.19;5008202;28;20067;-62
2023/04/09 06:21:07;;;;;;;23.30;21.00;;;;;;;7.37;100.00;102414.66;5008905;28;20061;-61
2023/04/09 06:23:34;;;;;;;24.10;21.70;;;;;;;7.45;100.00;102414.66;5006899;28;20065;-61
2023/04/09 06:26:00;;;;;;;23.95;21.67;;;;;;;7.53;100.00;102414.66;5009263;28;20030;-61
2023/04/09 06:28:27;;;;;;;23.90;21.60;;;;;;;7.58;100.00;102414.13;5007633;28;20116;-61
2023/04/09 06:30:53;;;;;;;23.05;20.75;;;;;;;7.66;100.00;102409.53;5007088;28;20030;-64
2023/04/09 06:33:19;;;;;;;23.90;21.60;;;;;;;7.79;100.00;102415.28;5007663;28;20660;-62
2023/04/09 06:35:44;;;;;;;23.35;21.15;;;;;;;7.92;100.00;102414.75;5007192;28;20088;-62
2023/04/09 06:38:10;;;;;;;24.33;21.92;;;;;;;8.17;100.00;102417.44;5008125;28;20030;-61
2023/04/09 06:40:38;;;;;;;22.48;20.20;;;;;;;8.52;100.00;102416.97;5008411;28;20026;-62
2023/04/09 06:43:04;;;;;;;23.70;21.33;;;;;;;8.70;100.00;102427.66;5008585;28;20066;-63
2023/04/09 06:45:31;;;;;;;23.83;21.52;;;;;;;8.92;100.00;102422.38;5008115;28;20572;-62
2023/04/09 06:47:56;;;;;;;22.98;20.67;;;;;;;9.04;99.33;102427.28;5009330;28;20122;-62
2023/04/09 06:50:22;;;;;;;23.00;20.77;;;;;;;9.21;98.05;102421.66;5006701;28;20113;-62
2023/04/09 06:52:47;;;;;;;21.80;19.70;;;;;;;9.33;96.31;102426.53;5007552;28;20030;-62
2023/04/09 06:55:13;;;;;;;23.08;20.83;;;;;;;9.28;97.17;102420.75;5007963;28;20038;-62
2023/04/09 06:57:38;;;;;;;23.58;21.38;;;;;;;9.19;97.32;102424.59;5006553;28;20371;-62
2023/04/09 07:00:04;;;;;;;23.65;21.45;;;;;;;9.18;97.15;102424.78;5008466;28;20030;-63
2023/04/09 07:02:29;;;;;;;23.70;21.50;;;;;;;9.22;96.47;102429.69;5008756;28;20096;-62
2023/04/09 07:04:55;;;;;;;23.50;21.30;;;;;;;9.25;95.58;102429.34;5007308;28;20030;-62
2023/04/09 07:07:21;;;;;;;22.38;20.27;;;;;;;9.31;97.09;102425.00;5004968;28;20026;-62
2023/04/09 07:09:47;;;;;;;23.35;21.08;;;;;;;9.71;94.21;102433.91;4988305;28;20120;-62
2023/04/09 07:12:12;;;;;;;23.85;21.55;;;;;;;10.03;92.28;102425.34;5008200;28;20026;-62
2023/04/09 07:14:37;;;;;;;23.45;21.25;;;;;;;10.27;91.82;102424.25;5007549;28;20439;-62
2023/04/09 07:17:03;;;;;;;23.30;21.10;;;;;;;10.42;90.01;102426.13;5009029;28;20028;-62
2023/04/09 07:19:28;;;;;;;22.85;20.65;;;;;;;10.64;90.41;102425.13;5006131;28;20034;-62
2023/04/09 07:21:54;;;;;;;23.35;21.02;;;;;;;10.85;89.83;102432.59;4988983;28;20025;-62
2023/04/09 07:24:19;;;;;;;22.40;20.30;;;;;;;11.09;87.50;102425.84;5006756;28;20445;-62
2023/04/09 07:26:44;;;;;;;20.73;18.83;;;;;;;11.48;84.40;102428.16;5008239;28;20465;-62
2023/04/09 07:29:10;;;;;;;22.13;20.13;;;;;;;12.00;81.82;102420.53;5010934;28;20030;-63
2023/04/09 07:31:35;;;;;;;22.55;20.45;;;;;;;12.32;80.33;102422.66;5012722;28;20034;-63
2023/04/09 07:34:01;;;;;;;21.73;19.63;;;;;;;12.71;77.84;102424.72;5006158;28;20037;-61
2023/04/09 07:36:26;;;;;;;21.75;19.75;;;;;;;13.01;77.29;102420.78;5006751;28;20074;-60
2023/04/09 07:38:52;;;;;;;21.17;19.17;;;;;;;13.46;74.47;102425.56;5005595;28;20030;-60
2023/04/09 07:41:17;;;;;;;22.20;20.20;;;;;;;13.40;73.13;102425.56;5004669;28;20270;-60
2023/04/09 07:43:43;;;;;;;21.95;19.85;;;;;;;13.30;74.37;102423.22;5006709;28;20109;-61
2023/04/09 07:46:08;;;;;;;20.85;18.95;;;;;;;12.87;75.77;102426.25;5006072;28;20147;-60
2023/04/09 07:48:33;;;;;;;22.00;19.90;;;;;;;12.28;77.93;102428.78;5007270;28;20392;-60
2023/04/09 07:50:59;;;;;;;20.60;18.77;;;;;;;11.70;80.19;102424.31;5006564;28;20053;-59
2023/04/09 07:53:24;;;;;;;21.83;19.83;;;;;;;11.41;82.34;102433.59;5007119;28;20033;-60
2023/04/09 07:55:50;;;;;;;22.55;20.55;;;;;;;11.32;82.89;102432.03;5007004;28;20036;-61
2023/04/09 07:58:16;;;;;;;22.50;20.40;;;;;;;11.18;84.42;102430.19;5006753;28;20032;-61
2023/04/09 08:00:41;;;;;;;22.50;20.42;;;;;;;11.10;84.97;102433.06;5007836;28;20040;-60
2023/04/09 08:03:06;;;;;;;23.30;21.20;;;;;;;11.16;84.18;102429.53;5005689;28;20028;-61
2023/04/09 08:05:32;;;;;;;23.55;21.27;;;;;;;11.31;84.87;102429.50;5007498;28;20500;-61
2023/04/09 08:07:57;;;;;;;22.75;20.65;;;;;;;11.81;83.08;102427.56;5007224;28;20080;-61
2023/04/09 08:10:23;;;;;;;22.55;20.45;;;;;;;12.09;80.49;102422.94;5007319;28;20022;-61
2023/04/09 08:12:48;;;;;;;22.50;20.48;;;;;;;12.34;80.25;102426.03;4987041;28;20036;-62
2023/04/09 08:15:13;;;;;;;22.55;20.45;;;;;;;12.70;77.99;102422.16;5003209;28;20049;-61
2023/04/09 08:17:39;;;;;;;22.23;20.23;;;;;;;12.75;77.64;102429.81;5003501;28;20065;-61
2023/04/09 08:20:05;;;;;;;22.45;20.40;;;;;;;12.70;78.68;102424.94;5007370;28;20028;-61
2023/04/09 08:22:30;;;;;;;23.85;21.75;;;;;;;12.80;77.50;102430.91;5004303;28;20149;-62
2023/04/09 08:24:57;;;;;;;21.67;19.67;;;;;;;12.88;76.92;102427.13;5007010;28;20059;-62
2023/04/09 08:27:22;;;;;;;21.45;19.55;;;;;;;12.92;77.76;102425.63;5007133;28;20042;-61
2023/04/09 08:29:47;;;;;;;21.95;20.08;;;;;;;13.07;77.57;102420.78;5006104;28;20620;-61
2023/04/09 08:32:13;;;;;;;23.05;20.95;;;;;;;13.01;75.24;102420.78;5006049;28;20419;-61
2023/04/09 08:34:38;;;;;;;23.08;21.00;;;;;;;12.92;78.80;102426.47;5004862;28;20030;-61
2023/04/09 08:37:03;;;;;;;24.33;22.20;;;;;;;12.91;77.57;102419.25;5006139;28;20465;-62
2023/04/09 08:39:28;;;;;;;22.90;20.90;;;;;;;12.65;77.46;102421.94;5006233;28;20030;-61
2023/04/09 08:42:01;;;;;;;23.15;21.05;;;;;;;12.40;80.21;102425.22;5007535;28;20045;-61
2023/04/09 08:44:27;;;;;;;23.55;21.45;;;;;;;12.28;81.93;102420.50;5006465;28;20046;-61
2023/04/09 08:46:53;;;;;;;23.55;21.45;;;;;;;12.11;81.61;102418.06;5004282;28;20405;-61
2023/04/09 08:49:18;;;;;;;23.98;21.88;;;;;;;12.16;80.59;102420.19;5004678;28;20113;-61
2023/04/09 08:51:48;;;;;;;24.13;22.02;;;;;;;12.48;82.08;102417.84;5005408;28;20658;-61
2023/04/09 08:54:18;;;;;;;25.00;22.70;;;;;;;13.24;78.57;102418.53;5005261;28;20040;-61
2023/04/09 08:56:45;;;;;;;24.17;21.98;;;;;;;14.62;73.38;102416.66;5004574;28;20022;-61
2023/04/09 08:59:10;;;;;;;24.27;22.17;;;;;;;16.00;70.61;102411.22;5005675;28;20370;-60
2023/04/09 09:01:35;;;;;;;24.50;22.40;;;;;;;17.17;62.07;102415.75;5004901;28;20038;-61
2023/04/09 09:04:02;;;;;;;24.77;22.48;;;;;;;18.24;58.08;102413.69;5004776;28;20037;-61
2023/04/09 09:06:31;;;;;;;24.53;22.43;;;;;;;19.13;55.83;102416.13;5007156;28;20026;-61
2023/04/09 09:09:03;;;;;;;23.02;21.02;;;;;;;19.92;53.76;102418.88;5006537;28;20065;-62
2023/04/09 09:11:29;;;;;;;22.65;20.65;;;;;;;20.30;51.25;102409.69;5004616;28;20039;-61
2023/04/09 09:13:59;;;;;;;22.73;20.83;;;;;;;20.67;50.44;102414.66;5004490;28;20019;-62
2023/04/09 09:16:26;;;;;;;23.65;21.70;;;;;;;20.96;49.55;102415.28;5004121;28;20033;-61
2023/04/09 09:18:51;;;;;;;23.15;21.15;;;;;;;21.23;47.77;102413.31;5005902;28;20026;-62
2023/04/09 09:21:18;;;;;;;23.25;21.27;;;;;;;21.57;47.19;102404.72;5006847;28;20060;-62
2023/04/09 09:23:44;;;;;;;23.10;21.13;;;;;;;20.92;46.62;102414.13;5006588;28;20022;-62
2023/04/09 09:26:15;;;;;;;23.98;21.98;;;;;;;19.91;51.21;102409.69;5005703;28;20124;-62
2023/04/09 09:28:40;;;;;;;23.20;21.20;;;;;;;19.14;52.84;102413.09;5006757;28;20029;-61
2023/04/09 09:31:10;;;;;;;24.42;22.38;;;;;;;18.37;54.66;102407.88;5005747;28;20053;-61
2023/04/09 09:33:36;;;;;;;23.83;21.92;;;;;;;18.23;55.44;102406.44;5006082;28;20029;-61
2023/04/09 09:36:02;;;;;;;23.33;21.42;;;;;;;18.07;56.43;102405.25;5005631;28;20110;-61
2023/04/09 09:38:28;;;;;;;24.23;22.23;;;;;;;18.35;56.37;102400.88;5004462;28;20033;-61
2023/04/09 09:40:54;;;;;;;23.98;21.95;;;;;;;18.20;56.69;102400.53;5004020;28;20084;-61
2023/04/09 09:43:20;;;;;;;23.63;21.63;;;;;;;18.81;53.64;102397.16;5006455;28;20532;-61
2023/04/09 09:45:46;;;;;;;23.83;21.83;;;;;;;19.48;53.86;102402.00;5006715;28;20050;-61
2023/04/09 09:48:12;;;;;;;23.60;21.65;;;;;;;20.85;49.34;102392.00;5004230;28;20040;-61
2023/04/09 09:50:40;;;;;;;21.70;19.50;;;;;;;21.07;47.98;102386.34;5005275;28;20377;-61
2023/04/09 09:53:07;;;;;;;22.17;20.27;;;;;;;20.93;48.26;102390.66;4987175;28;20038;-61
2023/04/09 09:55:36;;;;;;;22.02;20.23;;;;;;;21.52;47.67;102378.69;4987277;28;20053;-61
2023/04/09 09:58:16;;;;;;;23.38;21.52;;;;;;;22.27;44.91;102372.78;4987567;28;20111;-61
2023/04/09 10:00:43;;;;;;;22.02;20.20;;;;;;;23.12;40.61;102382.91;5009610;28;20033;-61
2023/04/09 10:03:22;;;;;;;21.70;19.80;;;;;;;23.35;42.67;102376.72;5005074;28;20037;-61
2023/04/09 10:05:48;;;;;;;21.08;19.38;;;;;;;23.09;42.26;102375.88;5005691;28;20034;-61
2023/04/09 10:08:14;;;;;;;21.52;19.58;;;;;;;23.21;40.99;102372.78;5009160;28;20030;-61
2023/04/09 10:10:43;;;;;;;21.40;19.60;;;;;;;23.05;42.51;102369.13;5009468;28;20104;-61
2023/04/09 10:13:14;;;;;;;21.35;19.65;;;;;;;22.73;43.10;102370.16;5010012;28;20468;-61
2023/04/09 10:15:43;;;;;;;20.55;18.85;;;;;;;21.95;43.06;102372.03;5007955;28;20033;-61
2023/04/09 10:18:08;;;;;;;20.98;19.27;;;;;;;21.56;44.24;102360.28;5009662;28;20026;-61
2023/04/09 10:21:11;;;;;;;21.58;19.88;;;;;;;22.96;43.76;102365.19;5009266;28;20030;-61
2023/04/09 10:23:39;;;;;;;20.83;19.02;;;;;;;23.80;40.79;102356.25;4943467;28;20447;-61
2023/04/09 10:26:04;;;;;;;;;;;;;;;24.39;41.84;102351.91;5010601;28;20022;-61
2023/04/09 10:28:30;;;;;;;21.08;19.38;;;;;;;22.07;43.18;102350.25;5007263;28;19987;-61
2023/04/09 10:30:57;;;;;;;20.83;19.13;;;;;;;20.60;45.05;102352.59;5006964;28;20032;-61
2023/04/09 10:33:27;;;;;;;21.10;19.40;;;;;;;19.07;47.43;102359.50;5008190;28;20037;-61
2023/04/09 10:35:54;;;;;;;21.20;19.50;;;;;;;18.07;51.20;102346.88;5009772;28;20121;-61
2023/04/09 10:38:52;;;;;;;19.65;18.05;;;;;;;19.25;50.91;102340.84;4989333;28;20481;-61
2023/04/09 10:41:27;;;;;;;19.65;18.05;;;;;;;19.05;47.75;102344.13;4964772;28;20137;-60
2023/04/09 10:43:52;;;;;;;20.02;18.42;;;;;;;18.39;52.05;102335.31;5007685;28;20096;-61
2023/04/09 10:46:37;;;;;;;20.48;18.88;;;;;;;18.14;54.32;102344.78;5009115;28;20046;-61
2023/04/09 10:49:10;;;;;;;21.05;19.35;;;;;;;18.33;54.02;102336.28;5008205;28;20022;-61
2023/04/09 10:51:40;;;;;;;20.50;18.83;;;;;;;17.77;51.64;102337.84;5009452;28;20476;-61
2023/04/09 10:54:06;;;;;;;20.25;18.63;;;;;;;18.17;53.03;102335.13;4991738;28;20026;-61
2023/04/09 10:56:32;;;;;;;14.73;13.45;;;;;;;20.09;44.82;102324.03;5008699;28;20041;-61
2023/04/09 10:58:57;;;;;;;14.35;13.05;;;;;;;21.74;40.79;102315.91;5006034;28;20469;-61
2023/04/09 11:01:23;;;;;;;14.25;12.95;;;;;;;22.86;38.75;102315.56;5006346;28;20022;-61
2023/04/09 11:04:07;;;;;;;13.10;11.93;;;;;;;24.42;37.88;102316.78;5008347;28;20029;-61
2023/04/09 11:06:35;;;;;;;13.25;12.05;;;;;;;24.82;33.20;102310.06;5008712;28;20153;-61
2023/04/09 11:09:02;;;;;;;15.00;13.70;;;;;;;23.03;36.97;102320.94;5006431;28;20072;-61